createdAt,value
2022-08-19T00:04:43.073Z,10.02
2022-08-19T00:10:46.890Z,9.70
2022-08-19T00:16:49.757Z,10.75
2022-08-19T00:22:52.974Z,10.52
2022-08-19T00:28:55.488Z,11.15
2022-08-19T00:34:57.693Z,11.85
2022-08-19T00:40:59.763Z,12.27
2022-08-19T00:47:01.582Z,10.05
2022-08-19T00:53:05.247Z,9.82
2022-08-19T00:59:10.129Z,16.33
2022-08-19T01:05:19.599Z,10.80
2022-08-19T01:11:22.176Z,13.18
2022-08-19T01:17:24.065Z,11.35
2022-08-19T01:23:43.463Z,14.63
2022-08-19T01:29:46.292Z,13.90
2022-08-19T01:35:52.483Z,13.80
2022-08-19T01:41:55.330Z,10.02
2022-08-19T01:48:02.093Z,13.80
2022-08-19T01:54:04.325Z,14.75
2022-08-19T02:00:11.749Z,14.20
2022-08-19T02:06:13.822Z,13.07
2022-08-19T02:12:17.342Z,14.05
2022-08-19T02:18:19.113Z,15.63
2022-08-19T02:24:20.882Z,11.02
2022-08-19T02:30:22.987Z,17.52
2022-08-19T02:36:26.106Z,14.73
2022-08-19T02:42:27.912Z,12.03
2022-08-19T02:48:29.731Z,13.32
2022-08-19T02:54:31.482Z,15.85
2022-08-19T03:00:33.397Z,17.00
2022-08-19T03:06:42.657Z,13.50
2022-08-19T03:12:44.395Z,13.75
2022-08-19T03:18:46.640Z,12.77
2022-08-19T03:24:48.562Z,17.40
2022-08-19T03:30:59.071Z,18.33
2022-08-19T03:37:10.783Z,19.55
2022-08-19T03:43:12.549Z,12.50
2022-08-19T03:49:14.772Z,12.15
2022-08-19T03:55:16.906Z,13.98
2022-08-19T04:01:21.568Z,15.32
2022-08-19T04:07:36.718Z,14.82
2022-08-19T04:13:39.384Z,18.08
2022-08-19T04:19:41.884Z,18.63
2022-08-19T04:25:44.723Z,17.38
2022-08-19T04:31:47.542Z,16.70
2022-08-19T04:37:49.655Z,21.08
2022-08-19T04:43:51.427Z,19.02
2022-08-19T04:49:53.238Z,22.02
2022-08-19T04:55:58.880Z,15.23
2022-08-19T05:02:01.954Z,17.90
2022-08-19T05:08:03.923Z,21.02
2022-08-19T05:14:09.172Z,22.75
2022-08-19T05:20:30.805Z,19.20
2022-08-19T05:26:32.544Z,21.98
2022-08-19T05:32:34.512Z,24.58
2022-08-19T05:38:36.831Z,30.60
2022-08-19T05:44:50.205Z,20.65
2022-08-19T05:50:52.106Z,31.83
2022-08-19T05:56:54.953Z,24.30
2022-08-19T06:03:00.692Z,19.70
2022-08-19T06:09:11.754Z,20.73
2022-08-19T06:15:15.292Z,19.23
2022-08-19T06:21:17.221Z,14.90
2022-08-19T06:27:19.930Z,11.55
2022-08-19T06:33:22.119Z,14.73
2022-08-19T06:39:26.980Z,12.23
2022-08-19T06:45:34.960Z,12.57
2022-08-19T06:51:44.503Z,14.15
2022-08-19T06:57:47.271Z,10.05
2022-08-19T07:03:49.727Z,9.77
2022-08-19T07:10:00.859Z,8.70
2022-08-19T07:16:13.635Z,7.85
2022-08-19T07:22:23.824Z,9.35
2022-08-19T07:28:26.191Z,8.35
2022-08-19T07:34:31.890Z,6.95
2022-08-19T07:40:33.921Z,7.93
2022-08-19T07:46:39.304Z,7.25
2022-08-19T07:52:41.503Z,8.60
2022-08-19T07:58:46.334Z,7.18
2022-08-19T08:05:07.077Z,6.57
2022-08-19T08:11:09.173Z,4.85
2022-08-19T08:17:12.148Z,6.07
2022-08-19T08:23:23.408Z,5.73
2022-08-19T08:29:26.888Z,6.47
2022-08-19T08:35:37.337Z,4.30
2022-08-19T08:42:10.375Z,4.82
2022-08-19T08:48:25.311Z,5.22
2022-08-19T08:54:32.086Z,5.75
2022-08-19T09:00:44.041Z,3.95
2022-08-19T09:07:22.875Z,6.40
2022-08-19T09:13:51.075Z,5.47
2022-08-19T09:20:03.008Z,3.92
2022-08-19T09:26:10.342Z,3.25
2022-08-19T09:32:26.469Z,3.72
2022-08-19T09:38:29.750Z,3.13
2022-08-19T09:44:31.791Z,4.47
2022-08-19T09:50:35.159Z,5.45
2022-08-19T09:56:37.240Z,3.67
2022-08-19T10:02:39.311Z,4.72
2022-08-19T10:08:49.877Z,3.33
2022-08-19T10:14:54.399Z,4.65
2022-08-19T10:21:14.730Z,3.55
2022-08-19T10:27:17.381Z,5.28
2022-08-19T10:33:38.891Z,4.32
2022-08-19T10:39:43.362Z,4.65
2022-08-19T10:45:53.247Z,3.80
2022-08-19T10:52:20.189Z,8.02
2022-08-19T10:58:27.061Z,4.78
2022-08-19T11:04:29.685Z,4.40
2022-08-19T11:10:31.954Z,4.25
2022-08-19T11:16:34.034Z,4.60
2022-08-19T11:22:40.528Z,5.07
2022-08-19T11:28:43.439Z,3.63
2022-08-19T11:34:45.738Z,4.13
2022-08-19T11:41:02.506Z,3.20
2022-08-19T11:47:09.114Z,4.90
2022-08-19T11:53:11.398Z,6.03
2022-08-19T11:59:14.959Z,7.63
2022-08-19T12:05:17.150Z,8.10
2022-08-19T12:11:19.771Z,2.10
2022-08-19T12:17:22.206Z,2.25
2022-08-19T12:23:24.528Z,2.67
2022-08-19T12:29:29.725Z,3.45
2022-08-19T12:35:31.877Z,5.28
2022-08-19T12:41:34.077Z,4.10
2022-08-19T12:47:38.010Z,3.50
2022-08-19T12:53:43.289Z,3.70
2022-08-19T12:59:45.958Z,2.38
2022-08-19T13:05:47.979Z,2.70
2022-08-19T13:11:50.953Z,2.60
2022-08-19T13:17:54.940Z,2.97
2022-08-19T13:23:58.508Z,4.53
2022-08-19T13:30:19.912Z,3.67
2022-08-19T13:36:21.948Z,1.90
2022-08-19T13:42:30.933Z,2.27
2022-08-19T13:48:32.943Z,2.08
2022-08-19T13:54:34.986Z,3.90
2022-08-19T14:00:40.702Z,2.90
2022-08-19T14:06:42.785Z,2.95
2022-08-19T14:12:44.901Z,4.67
2022-08-19T14:18:47.163Z,3.53
2022-08-19T14:24:49.291Z,3.45
2022-08-19T14:30:51.152Z,4.90
2022-08-19T14:36:59.495Z,5.60
2022-08-19T14:43:05.474Z,5.78
2022-08-19T14:49:09.541Z,3.08
2022-08-19T14:55:11.821Z,3.22
2022-08-19T15:01:14.494Z,6.00
2022-08-19T15:07:16.995Z,6.03
2022-08-19T15:13:19.300Z,3.45
2022-08-19T15:19:21.353Z,3.13
2022-08-19T15:25:23.256Z,4.07
2022-08-19T15:31:28.417Z,5.18
2022-08-19T15:37:31.083Z,3.13
2022-08-19T15:43:33.778Z,3.05
2022-08-19T15:49:36.314Z,8.30
2022-08-19T15:55:46.284Z,3.97
2022-08-19T16:02:08.248Z,6.32
2022-08-19T16:08:13.481Z,4.45
2022-08-19T16:14:18.386Z,3.85
2022-08-19T16:20:24.113Z,5.03
2022-08-19T16:26:31.124Z,4.03
2022-08-19T16:32:34.027Z,6.10
2022-08-19T16:38:37.745Z,4.67
2022-08-19T16:44:43.806Z,3.08
2022-08-19T16:50:49.437Z,5.50
2022-08-19T16:56:52.233Z,4.07
2022-08-19T17:02:54.376Z,3.17
2022-08-19T17:08:59.353Z,2.27
2022-08-19T17:15:02.846Z,3.08
2022-08-19T17:21:05.060Z,3.63
2022-08-19T17:27:07.189Z,3.13
2022-08-19T17:33:09.348Z,3.30
2022-08-19T17:39:11.801Z,7.63
2022-08-19T17:45:14.646Z,4.47
2022-08-19T17:51:24.142Z,2.50
2022-08-19T17:57:26.843Z,2.60
2022-08-19T18:03:30.404Z,5.23
2022-08-19T18:09:41.658Z,4.78
2022-08-19T18:15:44.630Z,3.30
2022-08-19T18:21:47.955Z,5.03
2022-08-19T18:27:51.793Z,4.57
2022-08-19T18:33:54.127Z,4.82
2022-08-19T18:40:16.243Z,5.93
2022-08-19T18:46:37.161Z,6.32
2022-08-19T18:52:40.121Z,4.40
2022-08-19T18:58:43.201Z,5.38
2022-08-19T19:04:45.787Z,5.47
2022-08-19T19:10:47.937Z,4.67
2022-08-19T19:16:53.011Z,4.43
2022-08-19T19:22:57.759Z,4.43
2022-08-19T19:29:00.224Z,4.18
2022-08-19T19:35:02.215Z,4.55
2022-08-19T19:41:07.462Z,5.18
2022-08-19T19:47:10.280Z,8.90
2022-08-19T19:53:15.279Z,5.07
2022-08-19T19:59:17.813Z,4.13
2022-08-19T20:05:23.412Z,5.30
2022-08-19T20:11:49.865Z,4.68
2022-08-19T20:17:56.179Z,9.13
2022-08-19T20:24:09.172Z,5.82
2022-08-19T20:30:19.630Z,5.85
2022-08-19T20:36:23.618Z,6.65
2022-08-19T20:42:25.589Z,6.80
2022-08-19T20:48:27.573Z,6.93
2022-08-19T20:54:29.848Z,4.28
2022-08-19T21:00:31.730Z,4.20
2022-08-19T21:06:34.219Z,5.55
2022-08-19T21:12:36.099Z,6.40
2022-08-19T21:18:38.092Z,10.23
2022-08-19T21:24:40.103Z,5.85
2022-08-19T21:30:41.931Z,6.55
2022-08-19T21:36:43.881Z,8.55
2022-08-19T21:42:46.842Z,7.07
2022-08-19T21:48:49.463Z,8.80
2022-08-19T21:54:52.138Z,5.83
2022-08-19T22:00:54.245Z,8.43
2022-08-19T22:06:56.722Z,10.63
2022-08-19T22:12:59.094Z,9.80
2022-08-19T22:19:01.058Z,10.15
2022-08-19T22:25:31.222Z,13.43
2022-08-19T22:31:33.959Z,12.27
2022-08-19T22:37:35.891Z,12.65
2022-08-19T22:43:38.108Z,14.77
2022-08-19T22:49:40.130Z,11.05
2022-08-19T22:55:41.954Z,13.18
2022-08-19T23:01:44.035Z,13.02
2022-08-19T23:07:50.114Z,16.55
2022-08-19T23:13:54.198Z,17.00
2022-08-19T23:19:56.047Z,12.70
2022-08-19T23:25:57.976Z,15.38
2022-08-19T23:32:00.034Z,13.20
2022-08-19T23:38:02.150Z,11.68
2022-08-19T23:44:04.264Z,14.38
2022-08-19T23:50:07.511Z,11.32
2022-08-19T23:56:10.704Z,14.25
